Terminal Aerodrome Forecast
Issued by NWS Jacksonville, FL

Home | Current Version | Previous Version | Text Only | Print | Product List | Glossary On
Versions: 1 2 3 4 5 6 7 8 9 10 11 12 13 14 15 16 17 18 19 20 21
000
FTUS42 KJAX 291300 AAA
TAFGNV
TAF AMD
KGNV 291317Z 2913/3012 23006KT 6SM BR OVC008
     FM291500 23008KT P6SM BKN015 BKN025
     FM291600 21010KT P6SM BKN025 BKN050
     FM300000 24005KT 5SM BR VCSH OVC010=

USA.gov is the U.S. government's official web portal to all federal, state and local government web resources and services.